Time;durP1;ratioP1;P1;durP2;ratioP2;P2;SDS_P1;SDS_P2;PMS_P1;PMS_P2;Temp;Humidity;BMP_temperature;BMP_pressure;BME280_temperature;BME280_humidity;BME280_pressure;Samples;Min_cycle;Max_cycle;Signal;HPM_P1;HPM_P2
2022/03/23 00:00:36;;;;;;;21.90;14.38;;;10.60;42.20;;;;;;4992107;28;20033;-63
2022/03/23 00:03:03;;;;;;;25.63;15.82;;;10.60;42.30;;;;;;4991903;28;20026;-63
2022/03/23 00:05:29;;;;;;;23.27;14.85;;;10.50;42.30;;;;;;4991120;28;20061;-63
2022/03/23 00:07:56;;;;;;;25.35;15.80;;;10.50;42.40;;;;;;4996476;28;20030;-63
2022/03/23 00:10:22;;;;;;;27.80;17.10;;;10.50;42.40;;;;;;4991867;28;20026;-63
2022/03/23 00:12:48;;;;;;;26.45;16.30;;;10.50;42.40;;;;;;4994625;28;20109;-63
2022/03/23 00:15:14;;;;;;;24.63;14.18;;;10.50;42.70;;;;;;5000841;28;20159;-63
2022/03/23 00:17:40;;;;;;;23.65;15.45;;;10.50;42.70;;;;;;5009471;28;20115;-63
2022/03/23 00:20:06;;;;;;;30.33;16.88;;;10.40;42.70;;;;;;5003936;28;20506;-63
2022/03/23 00:22:32;;;;;;;24.55;15.70;;;10.40;42.90;;;;;;5006964;28;20030;-64
2022/03/23 00:24:58;;;;;;;24.02;15.77;;;10.40;43.20;;;;;;5011272;28;20501;-63
2022/03/23 00:27:24;;;;;;;25.30;15.18;;;10.30;43.20;;;;;;5009524;28;20500;-63
2022/03/23 00:29:50;;;;;;;24.77;15.32;;;10.30;43.20;;;;;;5030039;28;20065;-63
2022/03/23 00:32:15;;;;;;;25.23;17.45;;;10.30;43.30;;;;;;5010593;28;20037;-62
2022/03/23 00:34:41;;;;;;;23.38;15.27;;;10.30;43.40;;;;;;5009756;28;20460;-62
2022/03/23 00:37:06;;;;;;;26.02;14.77;;;10.20;43.40;;;;;;5013610;28;20665;-63
2022/03/23 00:39:32;;;;;;;23.85;14.98;;;10.20;43.40;;;;;;5011378;28;20358;-62
2022/03/23 00:41:57;;;;;;;21.88;15.38;;;10.20;43.60;;;;;;5011438;28;20448;-64
2022/03/23 00:44:23;;;;;;;24.35;15.30;;;10.20;43.60;;;;;;5014908;28;20032;-63
2022/03/23 00:46:49;;;;;;;24.15;15.23;;;10.10;43.80;;;;;;5004303;28;20457;-64
2022/03/23 00:49:15;;;;;;;23.17;14.38;;;10.10;43.80;;;;;;4995582;28;20035;-63
2022/03/23 00:51:40;;;;;;;22.70;14.05;;;10.10;43.90;;;;;;5004073;28;20517;-63
2022/03/23 00:54:09;;;;;;;28.48;14.82;;;10.00;44.00;;;;;;5015083;28;20167;-64
2022/03/23 00:56:35;;;;;;;23.50;14.13;;;10.00;44.10;;;;;;5004538;28;20125;-63
2022/03/23 00:59:00;;;;;;;22.30;14.98;;;10.00;44.20;;;;;;5005503;28;20114;-63
2022/03/23 01:01:29;;;;;;;24.42;14.95;;;10.00;44.30;;;;;;5010299;28;20091;-63
2022/03/23 01:03:54;;;;;;;25.20;15.82;;;10.00;44.30;;;;;;5014435;28;20494;-63
2022/03/23 01:06:20;;;;;;;21.58;14.75;;;9.90;44.30;;;;;;5013101;28;20042;-63
2022/03/23 01:08:45;;;;;;;22.23;13.95;;;9.90;44.30;;;;;;5014305;28;20073;-64
2022/03/23 01:11:11;;;;;;;23.58;14.02;;;9.90;44.50;;;;;;5013690;28;20576;-63
2022/03/23 01:13:37;;;;;;;23.77;14.65;;;9.80;44.60;;;;;;5014400;28;20056;-63
2022/03/23 01:16:04;;;;;;;21.80;14.75;;;9.80;44.70;;;;;;5001634;28;20040;-63
2022/03/23 01:18:29;;;;;;;23.75;13.88;;;9.80;44.70;;;;;;5014522;28;20482;-63
2022/03/23 01:20:55;;;;;;;21.98;13.73;;;9.80;44.80;;;;;;5012193;28;20112;-63
2022/03/23 01:23:20;;;;;;;22.67;14.60;;;9.80;44.90;;;;;;5013376;28;20026;-64
2022/03/23 01:25:46;;;;;;;23.08;14.05;;;9.70;44.80;;;;;;4995929;28;20038;-63
2022/03/23 01:28:11;;;;;;;23.25;14.40;;;9.70;45.00;;;;;;5013989;28;20499;-63
2022/03/23 01:30:37;;;;;;;24.70;14.45;;;9.70;45.10;;;;;;5013605;28;20072;-63
2022/03/23 01:33:02;;;;;;;21.33;13.45;;;9.60;45.30;;;;;;4998291;28;20088;-63
2022/03/23 01:35:28;;;;;;;21.30;13.15;;;9.60;45.30;;;;;;4998385;28;20032;-63
2022/03/23 01:37:53;;;;;;;22.75;14.23;;;9.60;45.50;;;;;;4994668;28;20034;-63
2022/03/23 01:40:19;;;;;;;22.83;14.60;;;9.60;45.70;;;;;;4997858;28;20490;-63
2022/03/23 01:42:44;;;;;;;20.80;13.40;;;9.50;45.80;;;;;;5006312;28;20029;-63
2022/03/23 01:45:10;;;;;;;21.95;14.25;;;9.50;46.00;;;;;;5013125;28;20045;-63
2022/03/23 01:47:36;;;;;;;21.33;13.95;;;9.40;46.00;;;;;;5000992;28;20018;-63
2022/03/23 01:50:04;;;;;;;21.52;14.00;;;9.40;46.00;;;;;;5012812;28;20087;-63
2022/03/23 01:52:32;;;;;;;24.73;14.80;;;9.40;46.00;;;;;;5011491;28;20033;-63
2022/03/23 01:54:58;;;;;;;25.33;15.00;;;9.30;46.00;;;;;;5011475;28;20469;-63
2022/03/23 01:57:24;;;;;;;20.98;13.93;;;9.30;46.10;;;;;;5001767;28;20022;-62
2022/03/23 01:59:51;;;;;;;25.83;13.90;;;9.30;46.20;;;;;;4998041;28;20378;-63
2022/03/23 02:02:17;;;;;;;23.70;14.15;;;9.30;46.20;;;;;;5010998;28;20030;-64
2022/03/23 02:04:42;;;;;;;23.50;14.45;;;9.30;46.30;;;;;;5010385;28;20050;-64
2022/03/23 02:07:08;;;;;;;20.70;13.95;;;9.30;46.40;;;;;;5001454;28;20497;-63
2022/03/23 02:09:34;;;;;;;20.30;14.43;;;9.30;46.50;;;;;;5006806;28;20482;-63
2022/03/23 02:12:05;;;;;;;23.65;14.07;;;9.20;46.50;;;;;;5012193;28;20033;-63
2022/03/23 02:14:30;;;;;;;20.88;14.10;;;9.20;46.60;;;;;;4999727;28;20030;-64
2022/03/23 02:16:56;;;;;;;19.42;13.82;;;9.20;46.60;;;;;;5011598;28;20045;-63
2022/03/23 02:19:24;;;;;;;22.10;13.75;;;9.20;46.70;;;;;;5010504;28;20028;-63
2022/03/23 02:21:53;;;;;;;22.17;14.77;;;9.20;46.80;;;;;;4998207;28;20141;-63
2022/03/23 02:24:24;;;;;;;21.90;15.20;;;9.10;46.90;;;;;;4994369;28;20027;-63
2022/03/23 02:26:50;;;;;;;22.45;14.02;;;9.10;47.00;;;;;;4999312;28;20085;-63
2022/03/23 02:29:18;;;;;;;20.60;13.85;;;9.10;47.00;;;;;;5009229;28;20606;-63
2022/03/23 02:31:43;;;;;;;24.95;14.38;;;9.10;47.00;;;;;;5000018;28;20600;-64
2022/03/23 02:34:09;;;;;;;22.52;13.68;;;9.00;47.00;;;;;;5004343;28;20043;-63
2022/03/23 02:36:35;;;;;;;20.63;13.80;;;9.00;47.10;;;;;;5011353;28;20033;-64
2022/03/23 02:39:01;;;;;;;20.48;13.65;;;9.00;47.30;;;;;;5003783;28;20545;-64
2022/03/23 02:41:28;;;;;;;24.70;14.07;;;9.00;47.40;;;;;;4993439;28;20153;-64
2022/03/23 02:43:53;;;;;;;18.77;13.07;;;9.00;47.50;;;;;;5005337;28;20102;-64
2022/03/23 02:46:20;;;;;;;20.15;13.75;;;8.90;47.50;;;;;;5011646;28;20109;-63
2022/03/23 02:48:46;;;;;;;22.95;14.75;;;9.00;47.70;;;;;;5005311;28;20033;-63
2022/03/23 02:51:12;;;;;;;23.23;16.17;;;8.90;47.70;;;;;;5012576;28;20037;-63
2022/03/23 03:02:28;;;;;;;21.98;13.60;;;8.80;47.90;;;;;;5002267;28;20044;-63
2022/03/23 03:04:54;;;;;;;23.15;15.23;;;8.80;48.10;;;;;;4992866;28;20108;-63
2022/03/23 03:07:20;;;;;;;21.15;14.38;;;8.80;48.10;;;;;;5001104;28;20061;-63
2022/03/23 03:09:45;;;;;;;24.58;14.60;;;8.80;48.20;;;;;;5010552;28;20030;-64
2022/03/23 03:12:11;;;;;;;24.98;15.20;;;8.70;48.20;;;;;;4993859;28;20026;-63
2022/03/23 03:14:38;;;;;;;21.77;14.68;;;8.70;48.20;;;;;;5010615;28;20038;-63
2022/03/23 03:17:05;;;;;;;25.42;15.30;;;8.70;48.30;;;;;;5012111;28;20040;-63
2022/03/23 03:19:31;;;;;;;24.33;14.77;;;8.70;48.40;;;;;;5005140;28;20117;-63
2022/03/23 03:21:57;;;;;;;24.98;15.38;;;8.70;48.60;;;;;;5011897;28;20113;-63
2022/03/23 03:24:22;;;;;;;26.02;15.68;;;8.60;48.70;;;;;;5009156;28;20115;-63
2022/03/23 03:26:48;;;;;;;29.58;16.10;;;8.50;48.70;;;;;;5010745;28;20441;-63
2022/03/23 03:29:14;;;;;;;25.00;15.80;;;8.60;48.90;;;;;;5001008;28;20422;-63
2022/03/23 03:31:40;;;;;;;26.38;15.88;;;8.50;48.90;;;;;;4993606;28;20080;-63
2022/03/23 03:34:05;;;;;;;27.65;15.63;;;8.60;49.00;;;;;;4994954;28;20441;-63
2022/03/23 03:36:31;;;;;;;25.67;15.55;;;8.50;49.10;;;;;;4992193;28;20129;-63
2022/03/23 03:38:56;;;;;;;28.02;16.38;;;8.50;49.20;;;;;;5005113;28;20053;-62
2022/03/23 03:41:22;;;;;;;25.55;16.27;;;8.50;49.20;;;;;;5011975;28;20025;-63
2022/03/23 03:43:49;;;;;;;28.88;16.92;;;8.40;49.50;;;;;;5008986;28;20468;-63
2022/03/23 03:46:14;;;;;;;25.75;16.60;;;8.40;49.60;;;;;;5011901;28;20045;-62
2022/03/23 03:48:40;;;;;;;25.73;15.55;;;8.40;49.80;;;;;;5009928;28;20030;-63
2022/03/23 03:51:06;;;;;;;29.50;16.65;;;8.40;49.80;;;;;;5002472;28;20070;-63
2022/03/23 03:53:33;;;;;;;30.05;18.55;;;8.30;49.90;;;;;;4996992;28;20049;-62
2022/03/23 03:55:59;;;;;;;32.65;19.13;;;8.40;50.00;;;;;;5010960;28;20060;-63
2022/03/23 03:58:24;;;;;;;24.27;16.33;;;8.30;49.90;;;;;;5009338;28;20026;-63
2022/03/23 04:00:50;;;;;;;30.15;17.63;;;8.30;50.10;;;;;;5011059;28;20022;-63
2022/03/23 04:03:16;;;;;;;25.45;16.20;;;8.20;50.30;;;;;;5009563;28;20095;-63
2022/03/23 04:05:41;;;;;;;32.17;18.92;;;8.20;50.50;;;;;;5005580;28;20092;-63
2022/03/23 04:08:08;;;;;;;30.20;17.98;;;8.20;50.60;;;;;;4996125;28;20428;-63
2022/03/23 04:10:35;;;;;;;30.88;18.02;;;8.20;50.60;;;;;;4991110;28;20030;-63
2022/03/23 04:13:00;;;;;;;33.45;18.98;;;8.10;50.60;;;;;;4996583;28;20033;-63
2022/03/23 04:15:26;;;;;;;28.40;18.17;;;8.10;50.80;;;;;;5010979;28;20111;-63
2022/03/23 04:17:53;;;;;;;30.98;19.05;;;8.10;51.20;;;;;;5005777;28;20030;-63
2022/03/23 04:20:19;;;;;;;29.92;16.88;;;8.10;51.10;;;;;;5000634;28;20030;-63
2022/03/23 04:22:44;;;;;;;31.02;18.02;;;8.10;51.30;;;;;;5010298;28;20084;-63
2022/03/23 04:25:12;;;;;;;30.73;17.92;;;8.10;51.30;;;;;;5011399;28;20038;-63
2022/03/23 04:27:52;;;;;;;32.05;18.65;;;8.00;51.30;;;;;;5005631;28;20362;-63
2022/03/23 04:30:22;;;;;;;33.20;18.25;;;8.00;51.50;;;;;;5006145;28;20026;-62
2022/03/23 04:32:50;;;;;;;33.50;18.25;;;8.00;51.60;;;;;;4994542;28;20030;-62
2022/03/23 04:35:17;;;;;;;29.40;17.38;;;8.00;51.70;;;;;;5009832;28;20463;-63
2022/03/23 04:37:43;;;;;;;34.92;19.05;;;7.90;51.70;;;;;;5002072;28;20437;-63
2022/03/23 04:40:11;;;;;;;32.58;18.23;;;7.90;51.80;;;;;;5011554;28;20026;-63
2022/03/23 04:42:37;;;;;;;33.08;18.40;;;7.90;51.80;;;;;;5001429;28;20105;-63
2022/03/23 04:45:05;;;;;;;36.75;18.40;;;7.90;51.80;;;;;;5010907;28;20033;-63
2022/03/23 04:47:31;;;;;;;30.75;17.95;;;7.90;52.00;;;;;;5009791;28;20852;-63
2022/03/23 04:49:56;;;;;;;29.50;17.15;;;7.90;52.10;;;;;;5019772;28;20030;-63
2022/03/23 04:52:22;;;;;;;28.08;17.63;;;7.80;52.20;;;;;;4991481;28;20077;-63
2022/03/23 04:54:48;;;;;;;29.55;17.73;;;7.80;52.10;;;;;;5005221;28;20050;-63
2022/03/23 04:57:13;;;;;;;26.73;16.13;;;7.80;52.40;;;;;;4992944;28;20026;-63
2022/03/23 04:59:39;;;;;;;31.95;17.40;;;7.80;52.40;;;;;;5010597;28;20389;-62
2022/03/23 05:02:05;;;;;;;28.08;17.27;;;7.80;52.60;;;;;;5009560;28;20112;-62
2022/03/23 05:04:31;;;;;;;28.80;16.60;;;7.80;52.50;;;;;;5010040;28;20046;-63
2022/03/23 05:06:56;;;;;;;28.55;16.70;;;7.80;52.60;;;;;;5010629;28;20033;-62
2022/03/23 05:09:22;;;;;;;28.58;17.42;;;7.80;52.60;;;;;;5008900;28;20033;-63
2022/03/23 05:11:47;;;;;;;31.80;19.33;;;7.80;52.70;;;;;;5010490;28;20045;-63
2022/03/23 05:14:13;;;;;;;31.20;17.60;;;7.80;52.90;;;;;;5008783;28;20117;-63
2022/03/23 05:16:39;;;;;;;28.48;16.67;;;7.80;53.00;;;;;;5010588;28;20026;-63
2022/03/23 05:19:04;;;;;;;29.33;17.10;;;7.80;53.00;;;;;;5004130;28;20025;-62
2022/03/23 05:21:30;;;;;;;25.83;17.00;;;7.80;53.10;;;;;;5010259;28;20032;-62
2022/03/23 05:23:55;;;;;;;30.15;17.85;;;7.80;53.20;;;;;;5012783;28;20018;-62
2022/03/23 05:26:21;;;;;;;32.50;18.45;;;7.80;53.40;;;;;;5013373;28;20112;-63
2022/03/23 05:28:47;;;;;;;28.30;17.75;;;7.70;53.70;;;;;;5001692;28;20038;-62
2022/03/23 05:31:13;;;;;;;36.33;18.35;;;7.70;53.80;;;;;;4994801;28;20030;-63
2022/03/23 05:33:38;;;;;;;29.45;18.20;;;7.70;54.00;;;;;;4995149;28;20053;-63
2022/03/23 05:36:04;;;;;;;31.63;17.83;;;7.80;54.00;;;;;;4994278;28;20132;-63
2022/03/23 05:38:29;;;;;;;28.27;17.38;;;7.80;54.00;;;;;;4996190;28;20157;-63
2022/03/23 05:40:55;;;;;;;29.67;17.30;;;7.80;53.90;;;;;;4994545;28;20026;-63
2022/03/23 05:43:20;;;;;;;29.50;18.13;;;7.80;53.90;;;;;;5000172;28;20022;-63
2022/03/23 05:45:46;;;;;;;27.75;16.23;;;7.90;54.50;;;;;;5014055;28;20033;-63
2022/03/23 05:48:11;;;;;;;29.90;17.55;;;7.90;54.10;;;;;;5012615;28;20654;-63
2022/03/23 05:50:37;;;;;;;29.25;16.73;;;7.90;54.20;;;;;;5013622;28;20066;-63
2022/03/23 05:53:03;;;;;;;30.83;17.08;;;8.00;54.30;;;;;;5007614;28;20025;-63
2022/03/23 05:55:29;;;;;;;33.35;16.60;;;8.00;54.30;;;;;;5012450;28;20076;-63
2022/03/23 05:57:55;;;;;;;29.35;17.45;;;8.00;54.20;;;;;;5011921;28;20030;-63
2022/03/23 06:00:20;;;;;;;25.95;16.77;;;8.00;54.00;;;;;;5013790;28;20018;-63
2022/03/23 06:02:46;;;;;;;31.23;16.75;;;8.00;53.90;;;;;;5003042;28;20022;-63
2022/03/23 06:05:11;;;;;;;29.45;17.15;;;8.10;53.80;;;;;;5013323;28;20081;-63
2022/03/23 06:07:37;;;;;;;35.80;17.85;;;8.10;53.80;;;;;;5012225;28;20603;-63
2022/03/23 06:10:03;;;;;;;28.25;17.65;;;8.00;53.80;;;;;;5000527;28;20081;-63
2022/03/23 06:12:29;;;;;;;29.95;17.55;;;8.10;53.90;;;;;;4994750;28;20022;-63
2022/03/23 06:14:54;;;;;;;30.08;16.45;;;8.10;53.70;;;;;;5001208;28;20032;-62
2022/03/23 06:17:20;;;;;;;26.85;17.35;;;8.10;53.80;;;;;;5012393;28;20026;-63
2022/03/23 06:19:45;;;;;;;25.63;16.45;;;8.10;53.70;;;;;;5007617;28;20026;-62
2022/03/23 06:22:11;;;;;;;29.23;17.88;;;8.10;53.50;;;;;;5013990;28;20121;-64
2022/03/23 06:24:36;;;;;;;30.50;17.30;;;8.20;53.50;;;;;;5007913;28;20022;-62
2022/03/23 06:27:02;;;;;;;27.42;16.63;;;8.20;53.50;;;;;;4993773;28;20026;-63
2022/03/23 06:29:28;;;;;;;29.80;17.13;;;8.20;53.40;;;;;;4993716;28;20035;-63
2022/03/23 06:31:54;;;;;;;26.50;16.38;;;8.20;53.40;;;;;;5009435;28;20030;-63
2022/03/23 06:34:19;;;;;;;27.92;17.30;;;8.30;53.40;;;;;;5003157;28;20616;-63
2022/03/23 06:36:44;;;;;;;29.10;17.65;;;8.30;53.40;;;;;;5032470;28;20037;-63
2022/03/23 06:39:10;;;;;;;27.65;17.52;;;8.30;53.40;;;;;;5012881;28;20030;-63
2022/03/23 06:41:35;;;;;;;31.80;17.55;;;8.30;53.40;;;;;;5024846;28;20118;-64
2022/03/23 06:44:01;;;;;;;33.38;17.92;;;8.30;53.40;;;;;;5015067;28;20300;-64
2022/03/23 06:46:27;;;;;;;31.73;17.80;;;8.40;53.40;;;;;;5003234;28;20509;-63
2022/03/23 06:48:52;;;;;;;27.50;17.10;;;8.40;53.40;;;;;;5007003;28;20061;-64
2022/03/23 06:51:18;;;;;;;27.13;16.90;;;8.50;53.50;;;;;;5005226;28;20688;-64
2022/03/23 06:53:44;;;;;;;28.60;17.33;;;8.50;53.50;;;;;;5005726;28;20026;-64
2022/03/23 06:56:10;;;;;;;30.60;17.67;;;8.60;54.10;;;;;;5004632;28;20543;-63
2022/03/23 06:58:36;;;;;;;33.90;16.88;;;8.70;53.80;;;;;;5002460;28;20049;-64
2022/03/23 07:01:01;;;;;;;26.60;16.60;;;8.70;53.60;;;;;;5004567;28;20125;-63
2022/03/23 07:03:28;;;;;;;31.00;17.23;;;8.80;53.70;;;;;;4993862;28;20027;-65
2022/03/23 07:05:53;;;;;;;33.13;17.08;;;8.90;53.50;;;;;;5004460;28;20037;-63
2022/03/23 07:11:04;;;;;;;32.05;17.58;;;8.90;53.50;;;;;;5012408;28;20107;-63
2022/03/23 07:13:30;;;;;;;28.33;17.48;;;9.00;53.40;;;;;;5008467;28;20018;-64
2022/03/23 07:15:55;;;;;;;30.05;17.42;;;9.00;53.50;;;;;;5001165;28;20482;-64
2022/03/23 07:18:21;;;;;;;29.02;17.15;;;9.10;53.50;;;;;;5000656;28;20034;-64
2022/03/23 07:20:46;;;;;;;27.13;17.13;;;9.20;53.40;;;;;;5010137;28;20030;-63
2022/03/23 07:23:12;;;;;;;29.80;16.40;;;9.20;53.30;;;;;;4998799;28;20029;-64
2022/03/23 07:25:37;;;;;;;27.15;15.77;;;9.30;53.20;;;;;;5000107;28;20062;-63
2022/03/23 07:28:03;;;;;;;32.47;16.88;;;9.30;53.20;;;;;;4998391;28;20072;-64
2022/03/23 07:30:30;;;;;;;31.92;16.80;;;9.40;53.10;;;;;;5011940;28;20120;-66
2022/03/23 07:32:55;;;;;;;33.65;17.48;;;9.50;52.90;;;;;;5004987;28;20078;-64
2022/03/23 07:35:21;;;;;;;26.80;16.50;;;9.60;52.80;;;;;;4993701;28;20486;-65
2022/03/23 07:37:47;;;;;;;27.50;17.35;;;9.60;52.90;;;;;;5001450;28;20462;-64
2022/03/23 07:40:13;;;;;;;26.17;16.65;;;9.60;52.70;;;;;;5001425;28;20084;-64
2022/03/23 07:42:38;;;;;;;28.08;16.65;;;9.70;52.40;;;;;;4998985;28;20109;-64
2022/03/23 07:45:05;;;;;;;27.70;16.02;;;9.70;52.10;;;;;;4992436;28;20470;-64
2022/03/23 07:47:31;;;;;;;21.60;15.50;;;9.80;52.00;;;;;;4994534;28;20042;-64
2022/03/23 07:49:56;;;;;;;27.67;16.50;;;9.90;52.10;;;;;;5001461;28;20063;-65
2022/03/23 07:52:22;;;;;;;27.20;16.60;;;10.00;52.30;;;;;;5001243;28;20528;-64
2022/03/23 07:54:47;;;;;;;30.52;16.05;;;10.10;52.30;;;;;;4995727;28;20026;-65
2022/03/23 07:57:13;;;;;;;25.05;16.90;;;10.20;52.30;;;;;;5007641;28;20041;-64
2022/03/23 07:59:39;;;;;;;27.75;15.30;;;10.30;52.30;;;;;;5000325;28;20026;-64
2022/03/23 08:02:05;;;;;;;24.77;15.43;;;10.30;52.40;;;;;;5002164;28;20503;-63
2022/03/23 08:04:32;;;;;;;23.83;15.07;;;10.40;51.90;;;;;;5000446;28;20051;-64
2022/03/23 08:06:59;;;;;;;25.73;14.65;;;10.50;51.70;;;;;;5005792;28;20029;-63
2022/03/23 08:09:24;;;;;;;25.77;14.57;;;10.60;51.70;;;;;;5009664;28;20049;-65
2022/03/23 08:11:50;;;;;;;22.55;15.02;;;10.60;51.70;;;;;;5008586;28;20026;-65
2022/03/23 08:14:15;;;;;;;23.35;14.48;;;10.70;51.20;;;;;;5009364;28;20464;-65
2022/03/23 08:16:41;;;;;;;25.85;14.35;;;10.80;50.90;;;;;;5002872;28;20505;-64
2022/03/23 08:19:07;;;;;;;24.63;15.27;;;10.90;51.10;;;;;;5006747;28;20219;-65
2022/03/23 08:21:33;;;;;;;21.85;14.93;;;10.90;50.90;;;;;;5001690;28;20497;-64
2022/03/23 08:23:59;;;;;;;23.85;16.00;;;11.00;50.50;;;;;;4997465;28;20034;-65
2022/03/23 08:26:24;;;;;;;25.20;14.90;;;11.10;50.40;;;;;;5005414;28;20041;-64
2022/03/23 08:28:50;;;;;;;23.80;14.85;;;11.20;50.20;;;;;;5007591;28;20470;-63
2022/03/23 08:31:15;;;;;;;24.05;15.77;;;11.20;50.00;;;;;;5006197;28;20079;-63
2022/03/23 08:33:41;;;;;;;22.90;14.40;;;11.30;49.70;;;;;;5006706;28;20381;-64
2022/03/23 08:36:07;;;;;;;28.40;15.60;;;11.40;50.70;;;;;;5008261;28;20053;-64
2022/03/23 08:38:34;;;;;;;22.35;15.18;;;11.40;50.80;;;;;;5002272;28;20030;-63
2022/03/23 08:41:00;;;;;;;22.88;15.77;;;11.50;50.50;;;;;;5003945;28;20026;-64
2022/03/23 08:43:25;;;;;;;27.77;15.25;;;11.60;50.40;;;;;;5000891;28;20030;-64
2022/03/23 08:45:51;;;;;;;21.88;15.32;;;11.70;50.40;;;;;;4994300;28;20022;-64
2022/03/23 08:48:18;;;;;;;23.27;14.93;;;11.70;49.80;;;;;;5003737;28;20026;-63
2022/03/23 08:50:48;;;;;;;22.17;15.63;;;11.80;49.70;;;;;;4997255;28;20026;-63
2022/03/23 08:53:13;;;;;;;23.48;15.15;;;11.90;49.60;;;;;;5007447;28;20034;-64
2022/03/23 08:55:39;;;;;;;23.13;15.82;;;12.00;49.70;;;;;;5005925;28;20026;-64
2022/03/23 08:58:04;;;;;;;25.58;15.93;;;12.00;49.10;;;;;;5010783;28;20065;-64
2022/03/23 09:00:30;;;;;;;24.42;16.70;;;12.10;48.60;;;;;;5007522;28;20500;-64
2022/03/23 09:02:56;;;;;;;26.10;15.80;;;12.10;48.30;;;;;;5010147;28;20022;-65
2022/03/23 09:05:22;;;;;;;23.73;15.32;;;12.30;48.30;;;;;;5010394;28;20052;-64
2022/03/23 09:07:48;;;;;;;21.10;14.52;;;12.30;49.00;;;;;;5009116;28;20051;-65
2022/03/23 09:10:15;;;;;;;21.77;14.10;;;12.40;48.70;;;;;;5002312;28;20385;-64
2022/03/23 09:12:42;;;;;;;24.98;15.30;;;12.50;48.40;;;;;;5003142;28;20049;-64
2022/03/23 09:15:10;;;;;;;26.58;15.50;;;12.50;48.10;;;;;;5010090;28;20030;-64
2022/03/23 09:17:36;;;;;;;19.50;14.38;;;12.60;47.70;;;;;;5009987;28;20110;-65
2022/03/23 09:20:04;;;;;;;25.25;16.20;;;12.60;48.00;;;;;;5009487;28;20050;-65
2022/03/23 09:22:34;;;;;;;26.38;15.02;;;12.70;47.40;;;;;;4994685;28;20038;-65
2022/03/23 09:25:10;;;;;;;25.10;14.68;;;12.80;46.90;;;;;;4997616;28;20061;-65
2022/03/23 09:27:37;;;;;;;25.08;15.88;;;12.90;46.90;;;;;;5002751;28;20034;-65
2022/03/23 09:30:07;;;;;;;23.80;14.32;;;12.90;46.40;;;;;;5012231;28;20040;-64
2022/03/23 09:32:32;;;;;;;29.15;15.30;;;13.00;46.50;;;;;;5012783;28;20029;-64
2022/03/23 09:34:59;;;;;;;24.13;15.43;;;13.10;47.10;;;;;;5004907;28;20081;-65
2022/03/23 09:40:09;;;;;;;25.70;15.10;;;13.30;46.80;;;;;;5005832;28;20505;-64
2022/03/23 09:42:35;;;;;;;22.98;14.95;;;13.40;46.90;;;;;;5002604;28;20038;-64
2022/03/23 09:45:01;;;;;;;21.98;14.75;;;13.50;46.80;;;;;;5007731;28;20030;-65
2022/03/23 09:47:26;;;;;;;23.45;16.35;;;13.50;46.00;;;;;;5011335;28;20040;-64
2022/03/23 09:49:52;;;;;;;24.00;15.23;;;13.60;46.00;;;;;;5009540;28;20042;-64
2022/03/23 09:52:18;;;;;;;23.98;14.60;;;13.70;45.70;;;;;;5002489;28;20037;-65
2022/03/23 09:54:45;;;;;;;23.00;15.60;;;13.80;45.20;;;;;;5010362;28;20057;-65
2022/03/23 09:57:12;;;;;;;21.33;14.85;;;13.90;44.30;;;;;;5000983;28;20128;-65
2022/03/23 09:59:37;;;;;;;20.17;13.85;;;14.00;44.40;;;;;;5009343;28;20061;-64
2022/03/23 10:02:03;;;;;;;23.02;14.88;;;14.10;43.80;;;;;;4997828;28;20434;-64
2022/03/23 10:05:11;;;;;;;27.70;16.83;;;14.10;43.40;;;;;;5005211;28;20050;-64
2022/03/23 10:08:00;;;;;;;26.77;15.38;;;14.20;43.10;;;;;;5007168;28;20053;-64
2022/03/23 10:11:23;;;;;;;24.20;15.32;;;14.30;43.60;;;;;;5008264;28;20597;-64
2022/03/23 10:14:33;;;;;;;22.95;15.68;;;14.40;43.70;;;;;;5007279;28;20034;-64
2022/03/23 10:17:18;;;;;;;23.85;15.88;;;14.50;43.20;;;;;;5007801;28;20543;-64
2022/03/23 10:19:44;;;;;;;21.80;15.48;;;14.60;43.10;;;;;;5010373;28;20022;-64
2022/03/23 10:22:12;;;;;;;25.80;15.77;;;14.60;43.10;;;;;;5010876;28;20088;-64
2022/03/23 10:24:38;;;;;;;21.15;15.43;;;14.80;42.80;;;;;;5000448;28;20026;-65
2022/03/23 10:27:09;;;;;;;25.88;15.90;;;14.80;42.40;;;;;;4996606;28;20040;-65
2022/03/23 10:29:40;;;;;;;21.27;14.90;;;14.90;42.50;;;;;;4995244;28;20144;-65
2022/03/23 10:32:08;;;;;;;21.38;14.82;;;15.00;42.40;;;;;;4993250;28;20023;-65
2022/03/23 10:34:50;;;;;;;23.35;16.30;;;15.10;42.40;;;;;;4993921;28;20034;-64
2022/03/23 10:37:27;;;;;;;23.08;16.27;;;15.20;42.30;;;;;;4992662;28;20433;-64
2022/03/23 10:39:55;;;;;;;20.40;14.73;;;15.30;41.90;;;;;;4993844;28;20060;-65
2022/03/23 10:42:23;;;;;;;20.25;15.30;;;15.40;41.60;;;;;;4992347;28;20026;-64
2022/03/23 10:44:50;;;;;;;25.50;15.30;;;15.50;41.40;;;;;;5012890;28;20116;-63
2022/03/23 10:47:27;;;;;;;23.90;16.67;;;15.50;41.50;;;;;;5011863;28;20089;-64
2022/03/23 10:49:53;;;;;;;23.77;16.67;;;15.60;41.20;;;;;;5012784;28;20045;-64
2022/03/23 10:52:20;;;;;;;24.63;16.70;;;15.80;41.40;;;;;;5011074;28;20022;-64
2022/03/23 10:54:58;;;;;;;21.92;15.40;;;15.90;41.10;;;;;;5011072;28;20453;-64
2022/03/23 10:57:59;;;;;;;21.20;14.40;;;15.90;40.70;;;;;;5012632;28;20038;-64
2022/03/23 11:00:36;;;;;;;22.15;15.30;;;16.00;40.90;;;;;;4996734;28;20041;-64
2022/03/23 11:03:03;;;;;;;21.13;14.98;;;16.10;40.60;;;;;;4992504;28;20058;-64
2022/03/23 11:05:40;;;;;;;19.85;14.52;;;16.20;40.50;;;;;;4993078;28;20058;-64
2022/03/23 11:08:13;;;;;;;19.88;14.32;;;16.30;40.40;;;;;;4992666;28;20457;-64
2022/03/23 11:16:30;;;;;;;24.42;15.73;;;16.50;40.00;;;;;;5012438;28;20041;-64
2022/03/23 11:19:12;;;;;;;19.48;14.15;;;16.60;39.80;;;;;;5005073;28;20034;-64
2022/03/23 11:22:00;;;;;;;22.10;14.75;;;16.60;39.60;;;;;;5012348;28;20022;-65
2022/03/23 11:24:27;;;;;;;23.88;15.52;;;16.80;39.50;;;;;;5010766;28;20030;-65
2022/03/23 11:26:55;;;;;;;22.55;15.50;;;16.80;39.00;;;;;;5011469;28;20064;-65
2022/03/23 11:29:20;;;;;;;23.13;15.38;;;16.90;39.30;;;;;;5004513;28;20097;-64
2022/03/23 11:31:46;;;;;;;23.13;15.73;;;16.90;39.00;;;;;;4991953;28;20034;-64
2022/03/23 11:34:15;;;;;;;24.33;14.57;;;17.00;38.80;;;;;;4993107;28;20022;-64
2022/03/23 11:36:41;;;;;;;24.00;15.90;;;17.00;39.10;;;;;;4992053;28;20050;-64
2022/03/23 11:39:07;;;;;;;26.17;16.00;;;17.10;39.10;;;;;;4994849;28;20029;-64
2022/03/23 11:41:33;;;;;;;22.30;15.45;;;17.10;38.70;;;;;;5012006;28;20030;-64
2022/03/23 11:43:58;;;;;;;23.33;15.77;;;17.20;39.40;;;;;;5009862;28;20032;-64
2022/03/23 11:46:25;;;;;;;20.23;14.73;;;17.30;38.50;;;;;;5012015;28;20026;-64
2022/03/23 11:49:00;;;;;;;19.38;15.02;;;17.30;37.90;;;;;;5008431;28;20030;-64
2022/03/23 11:51:54;;;;;;;21.70;15.10;;;17.40;38.00;;;;;;4992254;28;20042;-64
2022/03/23 11:57:48;;;;;;;19.85;14.18;;;17.50;37.70;;;;;;5011324;28;20033;-64
2022/03/23 12:00:17;;;;;;;18.23;14.05;;;17.60;37.70;;;;;;5008580;28;20037;-64
2022/03/23 12:02:43;;;;;;;18.77;13.73;;;17.60;37.70;;;;;;5011578;28;20107;-64
2022/03/23 12:05:30;;;;;;;21.75;14.40;;;17.70;37.60;;;;;;5008395;28;20497;-64
2022/03/23 12:07:56;;;;;;;19.17;14.27;;;17.70;37.30;;;;;;5011227;28;20026;-64
2022/03/23 12:10:31;;;;;;;20.98;14.93;;;17.80;36.80;;;;;;5010556;28;20425;-64
2022/03/23 12:12:57;;;;;;;21.48;15.23;;;17.80;36.60;;;;;;5011322;28;20083;-64
2022/03/23 12:15:26;;;;;;;18.90;14.75;;;17.80;37.00;;;;;;5010066;28;20085;-64
2022/03/23 12:17:54;;;;;;;19.23;14.95;;;17.90;37.50;;;;;;5011142;28;20429;-64
2022/03/23 12:20:46;;;;;;;19.35;13.98;;;17.90;37.10;;;;;;4997960;28;20513;-64
2022/03/23 12:23:14;;;;;;;18.23;13.32;;;18.00;37.10;;;;;;5000733;28;20222;-63
2022/03/23 12:26:17;;;;;;;21.05;14.30;;;18.00;36.60;;;;;;5010105;28;20048;-64
2022/03/23 12:28:59;;;;;;;21.25;14.55;;;18.10;36.60;;;;;;5006416;28;20018;-65
2022/03/23 12:31:37;;;;;;;17.60;13.00;;;18.10;36.90;;;;;;5008715;28;20026;-64
2022/03/23 12:34:25;;;;;;;17.38;13.10;;;18.10;36.20;;;;;;5006294;28;20038;-64
2022/03/23 12:37:01;;;;;;;21.38;13.68;;;18.20;36.10;;;;;;4997921;28;20129;-64
2022/03/23 12:39:41;;;;;;;16.40;13.10;;;18.20;35.90;;;;;;5002492;28;20034;-64
2022/03/23 12:42:12;;;;;;;18.45;13.65;;;18.20;36.00;;;;;;4999442;28;20506;-64
2022/03/23 12:44:40;;;;;;;19.67;14.40;;;18.30;36.10;;;;;;5004929;28;20092;-64
2022/03/23 12:47:14;;;;;;;23.25;14.20;;;18.30;36.10;;;;;;4999249;28;20026;-65
2022/03/23 12:58:17;;;;;;;20.45;15.85;;;18.40;36.60;;;;;;5010408;28;20576;-64
2022/03/23 13:00:47;;;;;;;21.05;16.63;;;18.50;36.80;;;;;;4999621;28;20432;-64
2022/03/23 13:03:18;;;;;;;22.65;15.40;;;18.50;36.60;;;;;;5007049;28;20038;-64
2022/03/23 13:05:58;;;;;;;20.27;16.23;;;18.50;36.70;;;;;;5007667;28;20412;-64
2022/03/23 13:08:28;;;;;;;20.30;14.95;;;18.50;36.60;;;;;;5009638;28;20076;-64